createdAt,value
2023-08-19T00:00:31.604Z,14.87
2023-08-19T00:03:35.226Z,17.23
2023-08-19T00:06:43.216Z,15.60
2023-08-19T00:09:46.272Z,15.73
2023-08-19T00:12:49.103Z,18.00
2023-08-19T00:15:52.444Z,14.65
2023-08-19T00:18:56.093Z,16.27
2023-08-19T00:21:59.157Z,19.90
2023-08-19T00:25:02.005Z,15.33
2023-08-19T00:28:05.515Z,14.82
2023-08-19T00:31:09.153Z,17.83
2023-08-19T00:34:12.445Z,16.33
2023-08-19T00:37:16.432Z,14.93
2023-08-19T00:40:21.011Z,15.43
2023-08-19T00:43:23.673Z,15.05
2023-08-19T00:46:27.355Z,19.20
2023-08-19T00:49:31.720Z,16.37
2023-08-19T00:52:36.345Z,20.30
2023-08-19T00:55:39.161Z,16.10
2023-08-19T00:58:42.605Z,17.85
2023-08-19T01:01:45.483Z,15.95
2023-08-19T01:04:48.646Z,16.20
2023-08-19T01:07:59.380Z,16.83
2023-08-19T01:11:25.611Z,15.73
2023-08-19T01:15:15.575Z,16.17
2023-08-19T01:18:19.360Z,17.10
2023-08-19T01:21:23.711Z,17.73
2023-08-19T01:24:29.241Z,14.97
2023-08-19T01:27:32.194Z,16.43
2023-08-19T01:30:35.666Z,16.50
2023-08-19T01:33:38.848Z,14.50
2023-08-19T01:36:46.183Z,14.65
2023-08-19T01:39:50.036Z,16.70
2023-08-19T01:42:55.896Z,17.63
2023-08-19T01:45:58.917Z,13.88
2023-08-19T01:49:02.021Z,13.18
2023-08-19T01:52:04.933Z,14.60
2023-08-19T01:55:08.652Z,18.67
2023-08-19T01:58:11.480Z,14.70
2023-08-19T02:01:15.169Z,17.17
2023-08-19T02:04:18.819Z,17.45
2023-08-19T02:07:21.856Z,16.08
2023-08-19T02:10:25.037Z,14.20
2023-08-19T02:13:27.814Z,16.37
2023-08-19T02:16:31.019Z,14.68
2023-08-19T02:19:33.796Z,16.45
2023-08-19T02:22:40.085Z,14.48
2023-08-19T02:25:42.969Z,19.53
2023-08-19T02:28:46.023Z,19.17
2023-08-19T02:31:48.847Z,16.75
2023-08-19T02:34:51.936Z,19.15
2023-08-19T02:37:54.673Z,18.35
2023-08-19T02:40:57.844Z,18.43
2023-08-19T02:44:00.786Z,20.23
2023-08-19T02:47:05.216Z,21.42
2023-08-19T02:50:08.580Z,18.35
2023-08-19T02:53:11.641Z,18.67
2023-08-19T02:56:14.522Z,18.77
2023-08-19T02:59:17.575Z,20.63
2023-08-19T03:02:20.578Z,22.60
2023-08-19T03:05:23.751Z,20.25
2023-08-19T03:08:26.544Z,18.27
2023-08-19T03:11:30.549Z,18.97
2023-08-19T03:14:33.590Z,16.83
2023-08-19T03:17:36.809Z,21.73
2023-08-19T03:20:39.724Z,21.23
2023-08-19T03:23:42.789Z,19.83
2023-08-19T03:26:45.733Z,20.93
2023-08-19T03:29:49.179Z,22.53
2023-08-19T03:32:52.236Z,20.00
2023-08-19T03:36:00.287Z,23.08
2023-08-19T03:39:03.216Z,17.27
2023-08-19T03:42:08.944Z,17.13
2023-08-19T03:45:12.065Z,17.43
2023-08-19T03:48:15.975Z,20.40
2023-08-19T03:51:19.028Z,19.62
2023-08-19T03:54:22.170Z,17.08
2023-08-19T03:57:24.954Z,17.87
2023-08-19T04:00:28.245Z,19.13
2023-08-19T04:03:31.454Z,17.33
2023-08-19T04:06:34.684Z,17.70
2023-08-19T04:09:37.880Z,18.50
2023-08-19T04:12:41.124Z,19.93
2023-08-19T04:15:44.277Z,30.27
2023-08-19T04:18:47.114Z,51.65
2023-08-19T04:21:50.205Z,29.27
2023-08-19T04:24:54.152Z,26.05
2023-08-19T04:27:57.411Z,38.33
2023-08-19T04:31:10.740Z,33.27
2023-08-19T04:34:14.226Z,31.08
2023-08-19T04:37:17.567Z,32.72
2023-08-19T04:40:20.632Z,29.60
2023-08-19T04:43:24.662Z,27.67
2023-08-19T04:46:27.843Z,25.90
2023-08-19T04:49:30.645Z,22.20
2023-08-19T04:52:34.244Z,19.58
2023-08-19T04:55:37.074Z,19.02
2023-08-19T04:58:41.424Z,19.53
2023-08-19T05:01:44.284Z,21.13
2023-08-19T05:04:48.124Z,19.12
2023-08-19T05:07:50.924Z,18.62
2023-08-19T05:10:54.097Z,21.50
2023-08-19T05:13:57.190Z,20.40
2023-08-19T05:17:00.192Z,21.07
2023-08-19T05:20:03.358Z,18.60
2023-08-19T05:23:06.481Z,20.35
2023-08-19T05:26:09.285Z,19.65
2023-08-19T05:29:13.467Z,22.40
2023-08-19T05:32:16.361Z,24.10
2023-08-19T05:35:19.422Z,17.65
2023-08-19T05:38:22.315Z,17.15
2023-08-19T05:41:26.239Z,19.75
2023-08-19T05:44:28.970Z,21.97
2023-08-19T05:47:32.429Z,18.93
2023-08-19T05:50:35.854Z,17.20
2023-08-19T05:53:39.858Z,19.50
2023-08-19T05:56:42.624Z,21.42
2023-08-19T05:59:46.010Z,19.80
2023-08-19T06:02:48.880Z,16.90
2023-08-19T06:05:52.676Z,17.00
2023-08-19T06:08:55.525Z,18.25
2023-08-19T06:11:58.794Z,18.80
2023-08-19T06:15:01.488Z,16.50
2023-08-19T06:18:05.110Z,17.53
2023-08-19T06:21:07.877Z,19.62
2023-08-19T06:24:11.054Z,19.23
2023-08-19T06:27:13.909Z,16.02
2023-08-19T06:30:17.290Z,20.30
2023-08-19T06:33:20.550Z,19.23
2023-08-19T06:36:27.230Z,24.95
2023-08-19T06:39:31.973Z,23.70
2023-08-19T06:42:36.811Z,20.83
2023-08-19T06:45:39.784Z,20.90
2023-08-19T06:48:44.064Z,22.70
2023-08-19T06:51:47.254Z,21.67
2023-08-19T06:54:50.951Z,21.50
2023-08-19T06:58:05.279Z,21.33
2023-08-19T07:01:19.562Z,20.77
2023-08-19T07:04:29.330Z,22.57
2023-08-19T07:07:34.726Z,19.55
2023-08-19T07:10:38.318Z,20.25
2023-08-19T07:13:41.694Z,23.00
2023-08-19T07:16:45.527Z,21.30
2023-08-19T07:19:53.637Z,20.83
2023-08-19T07:22:58.162Z,23.25
2023-08-19T07:26:02.357Z,20.08
2023-08-19T07:29:05.401Z,22.08
2023-08-19T07:32:11.206Z,21.10
2023-08-19T07:35:14.178Z,18.27
2023-08-19T07:38:18.265Z,20.85
2023-08-19T07:41:21.689Z,20.70
2023-08-19T07:44:24.993Z,20.40
2023-08-19T07:47:27.832Z,20.07
2023-08-19T07:50:31.480Z,17.00
2023-08-19T07:53:34.455Z,18.85
2023-08-19T07:56:37.529Z,14.02
2023-08-19T07:59:40.420Z,16.35
2023-08-19T08:02:43.625Z,11.90
2023-08-19T08:05:47.627Z,13.43
2023-08-19T08:08:50.606Z,13.57
2023-08-19T08:11:56.275Z,15.13
2023-08-19T08:15:00.306Z,11.73
2023-08-19T08:18:03.574Z,16.13
2023-08-19T08:21:06.987Z,13.40
2023-08-19T08:24:11.088Z,10.38
2023-08-19T08:27:15.065Z,11.75
2023-08-19T08:30:18.820Z,8.98
2023-08-19T08:33:21.799Z,11.33
2023-08-19T08:36:25.155Z,9.73
2023-08-19T08:39:27.950Z,12.70
2023-08-19T08:42:31.177Z,9.15
2023-08-19T08:45:34.881Z,8.27
2023-08-19T08:48:38.197Z,9.00
2023-08-19T08:51:43.287Z,8.30
2023-08-19T08:54:47.117Z,8.73
2023-08-19T08:57:50.454Z,10.55
2023-08-19T09:00:55.028Z,10.15
2023-08-19T09:04:05.212Z,8.67
2023-08-19T09:07:14.049Z,8.57
2023-08-19T09:10:19.895Z,7.78
2023-08-19T09:13:25.470Z,9.35
2023-08-19T09:16:28.420Z,7.45
2023-08-19T09:19:31.631Z,8.73
2023-08-19T09:22:34.710Z,7.73
2023-08-19T09:25:40.961Z,7.85
2023-08-19T09:28:43.964Z,7.43
2023-08-19T09:31:53.892Z,6.95
2023-08-19T09:35:07.847Z,7.27
2023-08-19T09:38:25.217Z,6.97
2023-08-19T09:41:29.709Z,7.05
2023-08-19T09:44:32.869Z,6.40
2023-08-19T09:47:48.956Z,9.85
2023-08-19T09:50:52.293Z,7.00
2023-08-19T09:53:56.718Z,11.87
2023-08-19T09:57:00.198Z,6.75
2023-08-19T10:00:09.079Z,8.55
2023-08-19T10:03:15.166Z,8.82
2023-08-19T10:06:32.003Z,7.83
2023-08-19T10:09:39.835Z,9.50
2023-08-19T10:12:45.399Z,9.30
2023-08-19T10:15:49.375Z,9.05
2023-08-19T10:18:54.175Z,11.05
2023-08-19T10:21:58.876Z,8.70
2023-08-19T10:25:04.716Z,8.83
2023-08-19T10:28:23.172Z,9.95
2023-08-19T10:31:28.224Z,9.80
2023-08-19T10:34:31.332Z,9.70
2023-08-19T10:37:34.429Z,9.87
2023-08-19T10:40:37.634Z,12.53
2023-08-19T10:43:55.520Z,12.65
2023-08-19T10:47:15.256Z,9.20
2023-08-19T10:50:18.798Z,8.32
2023-08-19T10:53:21.912Z,10.37
2023-08-19T10:56:24.932Z,8.27
2023-08-19T10:59:29.132Z,8.05
2023-08-19T11:02:32.974Z,8.63
2023-08-19T11:05:36.759Z,9.35
2023-08-19T11:08:45.378Z,7.87
2023-08-19T11:11:49.623Z,7.17
2023-08-19T11:14:54.281Z,7.82
2023-08-19T11:17:57.479Z,6.85
2023-08-19T11:21:00.713Z,8.43
2023-08-19T11:24:04.398Z,7.03
2023-08-19T11:27:07.192Z,7.83
2023-08-19T11:30:16.144Z,6.30
2023-08-19T11:33:22.705Z,7.28
2023-08-19T11:36:28.504Z,7.15
2023-08-19T11:39:34.633Z,8.33
2023-08-19T11:42:37.977Z,6.53
2023-08-19T11:45:42.659Z,6.90
2023-08-19T11:48:46.342Z,7.53
2023-08-19T11:51:49.742Z,6.70
2023-08-19T11:55:09.187Z,6.30
2023-08-19T11:58:12.228Z,4.80
2023-08-19T12:01:19.938Z,5.55
2023-08-19T12:04:23.616Z,6.07
2023-08-19T12:07:29.321Z,5.70
2023-08-19T12:10:41.918Z,5.60
2023-08-19T12:13:51.246Z,9.20
2023-08-19T12:16:54.243Z,7.68
2023-08-19T12:19:59.664Z,7.07
2023-08-19T12:23:02.767Z,7.87
2023-08-19T12:26:05.645Z,6.60
2023-08-19T12:29:09.025Z,6.57
2023-08-19T12:32:11.921Z,6.78
2023-08-19T12:35:15.243Z,8.30
2023-08-19T12:38:20.432Z,7.78
2023-08-19T12:41:23.544Z,10.90
2023-08-19T12:44:26.462Z,8.47
2023-08-19T12:47:29.672Z,9.65
2023-08-19T12:50:32.651Z,7.45
2023-08-19T12:53:35.816Z,8.93
2023-08-19T12:56:38.571Z,9.03
2023-08-19T12:59:41.648Z,8.00
2023-08-19T13:02:44.984Z,7.53
2023-08-19T13:06:06.569Z,10.52
2023-08-19T13:09:09.353Z,7.65
2023-08-19T13:12:12.433Z,8.57
2023-08-19T13:15:18.062Z,6.73
2023-08-19T13:18:21.505Z,7.18
2023-08-19T13:21:24.538Z,7.15
2023-08-19T13:24:27.916Z,8.20
2023-08-19T13:27:31.683Z,7.27
2023-08-19T13:30:34.840Z,7.83
2023-08-19T13:33:37.779Z,7.45
2023-08-19T13:36:41.176Z,6.62
2023-08-19T13:39:45.321Z,7.07
2023-08-19T13:42:49.062Z,9.37
2023-08-19T13:45:52.195Z,8.00
2023-08-19T13:48:55.318Z,6.43
2023-08-19T13:51:58.244Z,6.07
2023-08-19T13:55:01.729Z,6.90
2023-08-19T13:58:05.014Z,6.77
2023-08-19T14:01:12.037Z,9.23
2023-08-19T14:04:15.761Z,8.32
2023-08-19T14:07:18.709Z,7.12
2023-08-19T14:10:24.166Z,6.50
2023-08-19T14:13:29.344Z,6.30
2023-08-19T14:16:32.645Z,7.00
2023-08-19T14:19:35.582Z,6.43
2023-08-19T14:22:41.205Z,8.27
2023-08-19T14:25:44.001Z,5.70
2023-08-19T14:28:47.397Z,6.40
2023-08-19T14:31:50.218Z,6.73
2023-08-19T14:34:53.436Z,5.85
2023-08-19T14:37:56.357Z,5.82
2023-08-19T14:40:59.463Z,11.12
2023-08-19T14:44:02.372Z,6.60
2023-08-19T14:47:07.773Z,6.00
2023-08-19T14:50:11.016Z,6.10
2023-08-19T14:53:14.259Z,7.37
2023-08-19T14:56:17.170Z,6.35
2023-08-19T14:59:21.136Z,6.70
2023-08-19T15:02:44.544Z,8.47
2023-08-19T15:05:48.203Z,6.10
2023-08-19T15:08:50.959Z,6.05
2023-08-19T15:11:54.596Z,6.93
2023-08-19T15:14:57.585Z,7.13
2023-08-19T15:18:00.721Z,5.50
2023-08-19T15:21:03.990Z,7.80
2023-08-19T15:24:08.021Z,6.43
2023-08-19T15:27:12.540Z,8.40
2023-08-19T15:30:16.052Z,6.10
2023-08-19T15:33:18.722Z,7.70
2023-08-19T15:36:22.236Z,6.60
2023-08-19T15:39:25.164Z,6.87
2023-08-19T15:42:28.403Z,6.00
2023-08-19T15:45:31.048Z,6.13
2023-08-19T15:48:34.614Z,6.30
2023-08-19T15:51:37.270Z,5.57
2023-08-19T15:54:40.367Z,9.10
2023-08-19T15:57:44.658Z,6.05
2023-08-19T16:00:48.779Z,6.07
2023-08-19T16:03:51.987Z,6.67
2023-08-19T16:06:54.822Z,7.75
2023-08-19T16:09:57.937Z,7.70
2023-08-19T16:13:01.011Z,8.82
2023-08-19T16:16:04.238Z,8.00
2023-08-19T16:19:10.603Z,9.23
2023-08-19T16:22:15.248Z,7.62
2023-08-19T16:25:18.150Z,7.20
2023-08-19T16:28:21.257Z,8.25
2023-08-19T16:31:24.057Z,7.50
2023-08-19T16:34:27.319Z,8.03
2023-08-19T16:37:30.030Z,7.05
2023-08-19T16:40:36.646Z,6.80
2023-08-19T16:43:39.478Z,7.62
2023-08-19T16:46:43.315Z,8.00
2023-08-19T16:49:46.155Z,7.30
2023-08-19T16:52:50.124Z,6.20
2023-08-19T16:55:57.123Z,7.37
2023-08-19T16:59:00.398Z,9.07
2023-08-19T17:02:03.561Z,9.03
2023-08-19T17:05:07.344Z,10.57
2023-08-19T17:08:10.189Z,8.60
2023-08-19T17:11:13.384Z,7.37
2023-08-19T17:14:16.229Z,7.85
2023-08-19T17:17:19.445Z,9.03
2023-08-19T17:20:22.326Z,7.30
2023-08-19T17:23:30.330Z,9.30
2023-08-19T17:26:33.006Z,9.38
2023-08-19T17:29:36.117Z,9.00
2023-08-19T17:32:38.845Z,10.13
2023-08-19T17:35:42.100Z,16.60
2023-08-19T17:38:45.149Z,19.60
2023-08-19T17:41:48.641Z,19.37
2023-08-19T17:44:53.775Z,19.23
2023-08-19T17:47:57.117Z,18.13
2023-08-19T17:51:03.122Z,17.10
2023-08-19T17:54:11.757Z,11.75
2023-08-19T17:57:15.236Z,10.45
2023-08-19T18:00:18.913Z,10.63
2023-08-19T18:03:22.793Z,12.33
2023-08-19T18:06:26.001Z,12.87
2023-08-19T18:09:30.448Z,10.82
2023-08-19T18:12:33.393Z,9.63
2023-08-19T18:15:37.624Z,11.73
2023-08-19T18:18:41.284Z,11.30
2023-08-19T18:21:45.403Z,11.43
2023-08-19T18:24:49.030Z,12.73
2023-08-19T18:27:53.878Z,12.93
2023-08-19T18:30:57.620Z,12.02
2023-08-19T18:34:01.439Z,13.27
2023-08-19T18:37:08.142Z,10.30
2023-08-19T18:40:14.927Z,8.90
2023-08-19T18:43:18.714Z,14.35
2023-08-19T18:46:22.882Z,10.05
2023-08-19T18:49:27.401Z,8.17
2023-08-19T18:52:31.061Z,9.63
2023-08-19T18:55:36.657Z,10.13
2023-08-19T18:58:40.694Z,9.63
2023-08-19T19:01:46.330Z,10.20
2023-08-19T19:04:53.386Z,13.90
2023-08-19T19:08:01.157Z,13.30
2023-08-19T19:11:07.738Z,13.30
2023-08-19T19:14:13.758Z,13.98
2023-08-19T19:17:22.828Z,15.45
2023-08-19T19:20:30.176Z,14.73
2023-08-19T19:23:38.493Z,14.57
2023-08-19T19:26:42.118Z,15.25
2023-08-19T19:29:46.591Z,16.48
2023-08-19T19:32:53.535Z,20.50
2023-08-19T19:35:59.892Z,13.27
2023-08-19T19:39:05.651Z,12.80
2023-08-19T19:42:13.305Z,12.75
2023-08-19T19:45:19.796Z,14.20
2023-08-19T19:48:25.502Z,16.12
2023-08-19T19:51:30.615Z,13.90
2023-08-19T19:54:37.324Z,10.87
2023-08-19T19:57:43.547Z,13.10
2023-08-19T20:00:49.925Z,10.65
2023-08-19T20:03:55.219Z,9.23
2023-08-19T20:07:00.998Z,12.17
2023-08-19T20:10:23.970Z,11.80
2023-08-19T20:13:29.926Z,10.63
2023-08-19T20:16:33.215Z,10.40
2023-08-19T20:19:36.849Z,11.25
2023-08-19T20:22:40.756Z,9.40
2023-08-19T20:25:44.641Z,10.67
2023-08-19T20:28:49.209Z,10.77
2023-08-19T20:31:53.346Z,10.98
2023-08-19T20:34:57.318Z,10.38
2023-08-19T20:38:01.027Z,12.40
2023-08-19T20:41:05.042Z,10.07
2023-08-19T20:44:18.316Z,11.20
2023-08-19T20:47:23.253Z,13.32
2023-08-19T20:50:26.637Z,9.45
2023-08-19T20:53:30.371Z,11.50
2023-08-19T20:56:33.602Z,11.50
2023-08-19T20:59:37.028Z,9.13
2023-08-19T21:02:40.404Z,12.35
2023-08-19T21:05:43.855Z,11.50
2023-08-19T21:08:47.176Z,10.50
2023-08-19T21:11:50.226Z,12.23
2023-08-19T21:14:53.011Z,12.75
2023-08-19T21:17:56.599Z,12.82
2023-08-19T21:20:59.408Z,11.90
2023-08-19T21:24:02.635Z,14.67
2023-08-19T21:27:05.588Z,14.97
2023-08-19T21:30:09.085Z,12.40
2023-08-19T21:33:11.768Z,13.05
2023-08-19T21:36:15.059Z,12.65
2023-08-19T21:39:17.817Z,14.07
2023-08-19T21:42:21.141Z,12.83
2023-08-19T21:45:23.925Z,10.73
2023-08-19T21:48:27.353Z,12.80
2023-08-19T21:51:30.182Z,15.52
2023-08-19T21:54:33.334Z,14.17
2023-08-19T21:57:36.420Z,14.00
2023-08-19T22:00:39.726Z,14.05
2023-08-19T22:03:42.852Z,14.65
2023-08-19T22:06:45.849Z,14.45
2023-08-19T22:09:50.462Z,14.37
2023-08-19T22:12:53.274Z,13.43
2023-08-19T22:15:56.316Z,11.32
2023-08-19T22:18:59.006Z,16.23
2023-08-19T22:22:02.092Z,11.75
2023-08-19T22:25:05.062Z,13.43
2023-08-19T22:28:08.158Z,14.23
2023-08-19T22:31:11.100Z,14.05
2023-08-19T22:34:14.301Z,15.30
2023-08-19T22:37:19.639Z,11.93
2023-08-19T22:40:22.819Z,11.97
2023-08-19T22:43:25.629Z,12.37
2023-08-19T22:46:28.942Z,14.32
2023-08-19T22:49:32.371Z,14.05
2023-08-19T22:52:35.334Z,15.10
2023-08-19T22:55:41.730Z,14.87
2023-08-19T22:58:44.935Z,14.60
2023-08-19T23:01:47.640Z,14.90
2023-08-19T23:04:52.152Z,13.80
2023-08-19T23:07:54.883Z,15.57
2023-08-19T23:10:59.540Z,14.20
2023-08-19T23:14:02.571Z,16.33
2023-08-19T23:17:06.682Z,14.57
2023-08-19T23:20:10.136Z,15.10
2023-08-19T23:23:13.205Z,14.00
2023-08-19T23:26:16.029Z,14.13
2023-08-19T23:29:19.237Z,14.83
2023-08-19T23:32:21.992Z,15.25
2023-08-19T23:35:25.192Z,14.38
2023-08-19T23:38:27.946Z,13.23
2023-08-19T23:41:31.002Z,13.90
2023-08-19T23:44:33.764Z,15.63
2023-08-19T23:47:38.132Z,15.02
2023-08-19T23:50:42.964Z,17.27
2023-08-19T23:53:48.462Z,14.98
2023-08-19T23:56:51.865Z,14.67
2023-08-19T23:59:55.353Z,19.03
